Time;durP1;ratioP1;P1;durP2;ratioP2;P2;SDS_P1;SDS_P2;PMS_P1;PMS_P2;Temp;Humidity;BMP_temperature;BMP_pressure;BME280_temperature;BME280_humidity;BME280_pressure;Samples;Min_cycle;Max_cycle;Signal;HPM_P1;HPM_P2
2022/06/27 00:01:51;;;;;;;80.45;74.32;;;;;;;16.52;100.00;101232.72;5073717;28;20123;-84
2022/06/27 00:04:18;;;;;;;90.50;84.05;;;;;;;16.52;100.00;101233.56;5066497;28;20107;-84
2022/06/27 00:06:45;;;;;;;69.70;64.00;;;;;;;16.72;100.00;101234.03;5066753;28;20048;-84
2022/06/27 00:09:12;;;;;;;64.53;59.28;;;;;;;16.47;100.00;101225.41;5069980;28;20504;-85
2022/06/27 00:11:39;;;;;;;71.40;65.55;;;;;;;17.13;100.00;101229.56;5066675;28;20060;-85
2022/06/27 00:14:08;;;;;;;70.95;65.25;;;;;;;17.14;100.00;101230.38;5066590;28;20501;-85
2022/06/27 00:16:35;;;;;;;62.30;57.00;;;;;;;17.07;100.00;101240.44;5066579;28;20049;-84
2022/06/27 00:19:02;;;;;;;55.90;50.90;;;;;;;16.97;100.00;101237.53;5066725;28;20380;-85
2022/06/27 00:21:28;;;;;;;58.95;54.25;;;;;;;16.45;100.00;101228.31;5069786;28;20044;-84
2022/06/27 00:23:55;;;;;;;64.32;59.25;;;;;;;15.97;100.00;101225.78;5064571;28;20557;-84
2022/06/27 00:26:22;;;;;;;64.95;59.25;;;;;;;16.17;100.00;101239.69;5060034;28;20040;-85
2022/06/27 00:28:49;;;;;;;74.43;68.53;;;;;;;16.00;100.00;101239.53;5061319;28;20040;-85
2022/06/27 00:31:19;;;;;;;84.97;78.57;;;;;;;16.13;100.00;101232.38;5074950;28;20064;-82
2022/06/27 00:33:46;;;;;;;74.07;68.07;;;;;;;16.34;100.00;101229.13;5079767;28;20048;-83
2022/06/27 00:36:14;;;;;;;74.20;68.50;;;;;;;16.81;100.00;101234.50;5077369;28;20056;-83
2022/06/27 00:38:41;;;;;;;80.18;73.88;;;;;;;16.89;100.00;101239.53;5082579;28;20434;-83
2022/06/27 00:41:08;;;;;;;71.90;66.22;;;;;;;16.78;100.00;101226.13;5077231;28;20045;-83
2022/06/27 00:43:35;;;;;;;72.43;66.65;;;;;;;16.75;100.00;101231.94;5080935;28;20109;-83
2022/06/27 00:46:02;;;;;;;62.65;57.47;;;;;;;16.04;100.00;101229.19;5076102;28;20048;-83
2022/06/27 00:48:30;;;;;;;67.18;61.60;;;;;;;15.82;100.00;101228.88;5079961;28;20143;-83
2022/06/27 00:50:58;;;;;;;96.70;89.80;;;;;;;16.31;100.00;101232.28;5074838;28;20131;-83
2022/06/27 00:53:25;;;;;;;77.20;71.30;;;;;;;16.72;100.00;101230.53;5075930;28;20052;-84
2022/06/27 00:55:53;;;;;;;71.30;65.47;;;;;;;16.81;100.00;101228.34;5073186;28;20075;-83
2022/06/27 00:58:20;;;;;;;72.90;67.30;;;;;;;16.77;100.00;101227.19;5073508;28;20045;-83
2022/06/27 01:00:47;;;;;;;69.07;63.28;;;;;;;16.67;100.00;101231.25;5069895;28;20056;-83
2022/06/27 01:03:14;;;;;;;67.97;62.65;;;;;;;16.64;100.00;101244.28;5075885;28;20063;-82
2022/06/27 01:05:51;;;;;;;62.47;57.28;;;;;;;16.64;100.00;101246.97;5077868;28;20043;-83
2022/06/27 01:08:18;;;;;;;55.40;50.80;;;;;;;15.84;100.00;101245.56;5071608;28;20062;-84
2022/06/27 01:10:46;;;;;;;63.92;58.72;;;;;;;15.78;100.00;101246.47;5066299;28;20044;-84
2022/06/27 01:13:13;;;;;;;61.17;56.05;;;;;;;15.93;100.00;101240.69;5061831;28;20125;-83
2022/06/27 01:15:41;;;;;;;82.50;76.57;;;;;;;15.95;100.00;101243.97;5066147;28;20045;-83
2022/06/27 01:18:09;;;;;;;50.88;46.47;;;;;;;15.77;100.00;101245.66;5063456;28;20474;-83
2022/06/27 01:20:36;;;;;;;58.20;53.40;;;;;;;15.73;100.00;101247.16;5063663;28;20059;-84
2022/06/27 01:23:04;;;;;;;65.82;60.42;;;;;;;15.88;100.00;101244.03;5058092;28;20074;-85
2022/06/27 01:25:32;;;;;;;50.55;45.78;;;;;;;16.13;100.00;101248.44;5067920;28;20159;-84
2022/06/27 01:28:00;;;;;;;68.60;63.28;;;;;;;16.21;100.00;101237.38;5066553;28;20359;-84
2022/06/27 01:30:27;;;;;;;68.70;63.03;;;;;;;16.21;100.00;101243.53;5063325;28;20055;-84
2022/06/27 01:32:54;;;;;;;65.45;60.03;;;;;;;16.27;100.00;101244.47;5064877;28;20487;-85
2022/06/27 01:35:21;;;;;;;51.35;47.22;;;;;;;15.42;100.00;101240.09;5060908;28;20041;-84
2022/06/27 01:37:48;;;;;;;56.15;51.25;;;;;;;15.75;100.00;101250.41;5067979;28;20076;-84
2022/06/27 01:40:17;;;;;;;60.53;55.38;;;;;;;16.10;100.00;101243.53;5068869;28;20054;-84
2022/06/27 01:42:44;;;;;;;57.35;52.78;;;;;;;16.25;100.00;101250.09;5066901;28;20114;-84
2022/06/27 01:45:12;;;;;;;65.53;60.33;;;;;;;16.16;100.00;101246.13;5067343;28;20492;-84
2022/06/27 01:47:39;;;;;;;83.15;77.35;;;;;;;15.40;100.00;101260.94;5061318;28;20056;-84
2022/06/27 01:50:07;;;;;;;72.30;66.78;;;;;;;15.05;100.00;101252.69;5067336;28;20045;-83
2022/06/27 01:52:35;;;;;;;90.70;83.97;;;;;;;15.41;100.00;101257.22;5064189;28;20056;-84
2022/06/27 01:55:02;;;;;;;60.42;55.28;;;;;;;15.71;100.00;101256.47;5064971;28;20401;-84
2022/06/27 01:57:30;;;;;;;78.55;72.18;;;;;;;15.90;100.00;101252.66;5066051;28;20045;-84
2022/06/27 01:59:57;;;;;;;68.28;63.03;;;;;;;15.51;100.00;101251.31;5064029;28;20052;-84
2022/06/27 02:02:24;;;;;;;76.40;70.65;;;;;;;15.73;100.00;101249.00;5164566;22;20504;-81
2022/06/27 02:07:33;;;;;;;58.75;53.78;;;;;;;15.21;100.00;101251.28;5069189;28;20055;-82
2022/06/27 02:10:00;;;;;;;70.70;64.95;;;;;;;15.58;100.00;101244.84;5072876;28;20053;-82
2022/06/27 02:12:56;;;;;;;67.65;62.45;;;;;;;15.88;100.00;101256.63;5075538;28;20060;-83
2022/06/27 02:15:33;;;;;;;67.40;62.17;;;;;;;15.20;100.00;101255.81;5074170;28;20485;-84
2022/06/27 02:18:04;;;;;;;73.22;67.63;;;;;;;15.40;100.00;101244.88;5069378;28;20051;-87
2022/06/27 02:20:32;;;;;;;76.35;70.45;;;;;;;15.72;100.00;101245.50;5071685;28;20049;-84
2022/06/27 02:23:00;;;;;;;62.25;57.15;;;;;;;15.68;100.00;101240.84;5073017;28;20044;-83
2022/06/27 02:25:30;;;;;;;60.28;55.25;;;;;;;15.79;100.00;101240.91;5066653;28;20053;-82
2022/06/27 02:28:08;;;;;;;56.85;51.65;;;;;;;15.17;100.00;101252.78;5078182;28;20056;-84
2022/06/27 02:30:35;;;;;;;66.82;61.15;;;;;;;15.48;100.00;101249.91;5069578;28;20041;-83
2022/06/27 02:33:09;;;;;;;57.45;52.75;;;;;;;15.24;100.00;101259.66;5075190;28;20377;-83
2022/06/27 02:35:54;;;;;;;73.57;68.18;;;;;;;15.15;100.00;101250.31;5063656;28;20044;-86
2022/06/27 02:38:23;;;;;;;53.15;48.75;;;;;;;15.47;100.00;101255.50;5071692;28;20056;-83
2022/06/27 02:40:51;;;;;;;50.50;45.55;;;;;;;15.47;100.00;101258.19;5075113;28;20124;-82
2022/06/27 02:43:21;;;;;;;73.72;65.85;;;;;;;15.86;100.00;101253.38;5076658;28;20055;-83
2022/06/27 02:45:49;;;;;;;57.35;52.47;;;;;;;15.85;100.00;101265.91;5087065;28;20075;-83
2022/06/27 02:48:18;;;;;;;54.33;48.20;;;;;;;15.79;100.00;101258.78;5078296;28;20049;-83
2022/06/27 02:50:51;;;;;;;49.90;45.88;;;;;;;16.03;100.00;101265.06;5078202;28;20374;-83
2022/06/27 02:53:23;;;;;;;46.88;42.70;;;;;;;15.50;100.00;101263.06;5075133;28;20048;-82
2022/06/27 02:56:11;;;;;;;52.83;48.38;;;;;;;15.87;100.00;101258.50;5063799;28;20053;-85
2022/06/27 02:58:46;;;;;;;61.47;56.65;;;;;;;15.95;100.00;101268.06;5078149;28;20495;-83
2022/06/27 03:01:14;;;;;;;54.85;50.60;;;;;;;16.17;100.00;101266.50;5066153;28;20055;-85
2022/06/27 03:03:58;;;;;;;70.13;64.22;;;;;;;16.44;100.00;101272.25;5077522;28;20085;-84
2022/06/27 03:06:29;;;;;;;74.32;68.55;;;;;;;16.10;100.00;101265.78;5078791;28;20495;-83
2022/06/27 03:08:58;;;;;;;75.97;70.25;;;;;;;15.86;100.00;101274.81;5066671;28;20084;-83
2022/06/27 03:11:26;;;;;;;74.30;68.55;;;;;;;16.33;100.00;101267.69;5079007;28;20412;-84
2022/06/27 03:13:57;;;;;;;66.55;61.75;;;;;;;16.52;100.00;101268.44;5062687;28;20048;-85
2022/06/27 03:16:25;;;;;;;64.20;59.45;;;;;;;16.20;100.00;101271.41;5068542;28;20056;-83
2022/06/27 03:18:52;;;;;;;55.53;51.03;;;;;;;16.31;100.00;101283.19;5064594;28;20040;-83
2022/06/27 03:21:20;;;;;;;52.03;47.85;;;;;;;16.55;100.00;101276.00;5061813;28;20471;-82
2022/06/27 03:23:49;;;;;;;64.90;60.17;;;;;;;16.48;100.00;101278.78;5079361;28;20075;-83
2022/06/27 03:26:17;;;;;;;49.25;45.22;;;;;;;16.63;100.00;101288.25;5078585;28;20108;-83
2022/06/27 03:28:47;;;;;;;51.30;47.40;;;;;;;16.67;100.00;101290.25;5081250;28;20476;-82
2022/06/27 03:31:18;;;;;;;48.20;44.47;;;;;;;16.74;100.00;101292.81;5059662;28;20045;-83
2022/06/27 03:34:05;;;;;;;50.00;45.92;;;;;;;16.81;100.00;101288.16;5080174;28;20416;-83
2022/06/27 03:36:33;;;;;;;54.40;50.15;;;;;;;16.78;100.00;101290.50;5059324;28;20471;-83
2022/06/27 03:39:01;;;;;;;58.92;54.13;;;;;;;16.84;100.00;101293.06;5079676;28;20045;-85
2022/06/27 03:41:39;;;;;;;50.45;46.63;;;;;;;16.89;100.00;101287.00;5068643;28;20106;-83
2022/06/27 03:44:18;;;;;;;51.50;47.03;;;;;;;16.80;100.00;101299.16;5075700;28;20045;-83
2022/06/27 03:46:54;;;;;;;55.05;49.85;;;;;;;17.14;100.00;101300.97;5080892;28;20048;-84
2022/06/27 03:52:08;;;;;;;47.10;43.03;;;;;;;17.20;100.00;101303.78;5073967;28;20118;-84
2022/06/27 03:54:37;;;;;;;47.58;43.38;;;;;;;17.04;100.00;101299.94;5075717;28;20056;-84
2022/06/27 03:57:08;;;;;;;55.72;50.97;;;;;;;17.16;100.00;101306.13;5078124;28;20048;-83
2022/06/27 03:59:35;;;;;;;58.92;52.85;;;;;;;17.14;100.00;101316.28;5079560;28;20044;-81
2022/06/27 04:02:06;;;;;;;69.97;52.55;;;;;;;16.64;100.00;101308.63;5066363;28;20373;-82
2022/06/27 04:04:48;;;;;;;65.43;54.58;;;;;;;16.84;100.00;101311.84;5072134;28;20428;-84
2022/06/27 04:07:15;;;;;;;;;;;;;;;17.09;100.00;101310.78;5068345;28;20052;-85
2022/06/27 04:09:46;;;;;;;72.47;61.67;;;;;;;17.26;100.00;101314.38;5067674;28;19947;-84
2022/06/27 04:12:13;;;;;;;82.82;67.82;;;;;;;17.24;100.00;101313.78;5075088;28;20056;-83
2022/06/27 04:14:53;;;;;;;84.47;69.85;;;;;;;17.37;100.00;101326.97;5076369;28;20048;-84
2022/06/27 04:17:21;;;;;;;104.75;87.88;;;;;;;17.20;100.00;101326.06;5074212;28;20048;-83
2022/06/27 04:19:49;;;;;;;120.72;109.53;;;;;;;17.40;100.00;101334.56;5060820;28;20057;-84
2022/06/27 04:22:16;;;;;;;104.15;93.55;;;;;;;17.44;100.00;101340.28;5057118;28;20048;-83
2022/06/27 04:24:46;;;;;;;89.85;80.22;;;;;;;17.21;100.00;101341.09;5070665;28;20059;-82
2022/06/27 04:27:13;;;;;;;85.50;76.25;;;;;;;17.49;100.00;101342.25;5070443;28;20049;-83
2022/06/27 04:29:40;;;;;;;101.00;89.13;;;;;;;17.44;100.00;101342.97;5075913;28;20040;-83
2022/06/27 04:32:23;;;;;;;95.60;86.18;;;;;;;17.62;100.00;101333.94;5073236;28;20049;-82
2022/06/27 04:34:50;;;;;;;105.47;94.95;;;;;;;17.39;100.00;101335.59;5066747;28;20441;-83
2022/06/27 04:37:23;;;;;;;99.47;88.85;;;;;;;17.71;100.00;101345.94;5072030;28;20044;-84
2022/06/27 04:39:54;;;;;;;101.03;91.53;;;;;;;17.71;100.00;101350.50;5071761;28;20076;-82
2022/06/27 04:42:23;;;;;;;85.75;78.25;;;;;;;17.68;100.00;101349.09;5071609;28;20083;-82
2022/06/27 04:44:50;;;;;;;85.78;78.47;;;;;;;17.79;100.00;101350.13;5065465;28;20063;-82
2022/06/27 04:47:25;;;;;;;78.25;71.40;;;;;;;17.99;100.00;101352.41;5068389;28;20515;-82
2022/06/27 04:49:53;;;;;;;76.53;70.30;;;;;;;17.90;100.00;101351.16;5062675;28;20041;-83
2022/06/27 04:52:24;;;;;;;75.75;69.47;;;;;;;18.30;100.00;101340.34;5067828;28;20114;-83
2022/06/27 04:54:53;;;;;;;74.28;67.85;;;;;;;18.34;100.00;101349.56;5068989;28;20044;-84
2022/06/27 04:57:20;;;;;;;72.38;65.97;;;;;;;18.56;100.00;101344.28;5066003;28;20501;-84
2022/06/27 04:59:49;;;;;;;78.50;72.20;;;;;;;18.68;100.00;101342.34;5073068;28;20060;-83
2022/06/27 05:02:16;;;;;;;73.25;66.97;;;;;;;18.68;100.00;101341.53;5064385;28;20040;-84
2022/06/27 05:04:46;;;;;;;73.25;66.88;;;;;;;18.71;100.00;101338.34;5067079;28;20044;-85
2022/06/27 05:07:13;;;;;;;73.88;67.50;;;;;;;18.86;100.00;101335.94;5069484;28;20055;-84
2022/06/27 05:09:40;;;;;;;71.60;65.40;;;;;;;19.05;100.00;101341.03;5063695;28;20052;-82
2022/06/27 05:12:08;;;;;;;70.43;64.07;;;;;;;19.30;100.00;101338.69;5067436;28;20049;-84
2022/06/27 05:14:37;;;;;;;66.97;61.20;;;;;;;18.92;100.00;101334.13;5056357;28;20049;-84
2022/06/27 05:17:05;;;;;;;68.80;62.90;;;;;;;19.49;100.00;101341.91;5058525;28;20072;-81
2022/06/27 05:19:33;;;;;;;67.75;61.67;;;;;;;19.51;100.00;101330.88;5062722;28;20053;-82
2022/06/27 05:22:01;;;;;;;67.68;61.67;;;;;;;19.42;100.00;101344.78;5075472;28;20049;-83
2022/06/27 05:24:28;;;;;;;70.45;64.45;;;;;;;19.56;100.00;101347.94;5066565;28;20061;-82
2022/06/27 05:26:55;;;;;;;69.70;63.50;;;;;;;20.03;100.00;101347.44;5066283;28;20048;-83
2022/06/27 05:29:23;;;;;;;70.18;63.95;;;;;;;20.19;100.00;101347.59;5066656;28;20040;-83
2022/06/27 05:32:01;;;;;;;60.92;55.47;;;;;;;20.33;100.00;101340.69;5061977;28;20044;-84
2022/06/27 05:34:29;;;;;;;59.33;53.80;;;;;;;20.42;100.00;101347.25;5061797;28;20052;-83
2022/06/27 05:37:05;;;;;;;71.22;65.63;;;;;;;20.58;100.00;101346.34;5061611;28;20057;-84
2022/06/27 05:39:35;;;;;;;66.25;60.50;;;;;;;20.69;100.00;101343.72;5064346;28;20052;-84
2022/06/27 05:42:04;;;;;;;65.47;59.97;;;;;;;20.94;100.00;101348.50;5061270;28;21495;-83
2022/06/27 05:44:32;;;;;;;60.25;54.97;;;;;;;20.68;100.00;101350.19;5058541;28;20052;-83
2022/06/27 05:47:05;;;;;;;59.47;54.58;;;;;;;21.11;100.00;101343.75;5066250;28;20404;-83
2022/06/27 05:49:33;;;;;;;56.22;51.20;;;;;;;21.24;100.00;101342.47;5067513;28;20487;-84
2022/06/27 05:52:02;;;;;;;55.13;50.63;;;;;;;21.11;100.00;101340.22;5074518;28;20045;-83
2022/06/27 05:54:34;;;;;;;51.35;46.92;;;;;;;20.94;100.00;101341.22;5075292;28;20117;-82
2022/06/27 05:57:01;;;;;;;50.72;46.22;;;;;;;21.20;100.00;101342.16;5075888;28;20063;-83
2022/06/27 05:59:29;;;;;;;50.53;46.30;;;;;;;21.77;100.00;101335.16;5076375;28;20048;-85
2022/06/27 06:02:00;;;;;;;46.17;42.53;;;;;;;21.90;100.00;101341.94;5071173;28;20060;-87
2022/06/27 06:04:50;;;;;;;46.30;42.40;;;;;;;21.95;100.00;101334.66;5033508;28;20045;-84
2022/06/27 06:07:18;;;;;;;50.53;46.25;;;;;;;22.09;100.00;101334.97;5032675;28;20087;-82
2022/06/27 06:09:46;;;;;;;45.78;42.10;;;;;;;22.38;100.00;101332.59;5035248;28;20129;-86
2022/06/27 06:12:34;;;;;;;43.92;40.42;;;;;;;22.67;100.00;101333.94;5034356;28;20470;-83
2022/06/27 06:15:04;;;;;;;45.08;41.50;;;;;;;22.88;100.00;101351.00;5037717;28;20060;-84
2022/06/27 06:17:34;;;;;;;41.20;38.30;;;;;;;22.96;100.00;101343.13;5029970;28;20049;-85
2022/06/27 06:20:01;;;;;;;39.35;36.20;;;;;;;23.08;100.00;101330.09;5037953;28;20140;-84
2022/06/27 06:22:53;;;;;;;37.03;34.17;;;;;;;23.26;100.00;101327.88;5037545;28;20049;-84
2022/06/27 06:25:23;;;;;;;37.83;34.60;;;;;;;23.19;100.00;101330.91;5032622;28;20057;-85
2022/06/27 06:27:50;;;;;;;37.35;34.00;;;;;;;23.43;100.00;101338.41;5037564;28;20107;-85
2022/06/27 06:30:19;;;;;;;35.85;33.05;;;;;;;23.06;100.00;101335.00;5029759;28;20058;-86
2022/06/27 06:32:46;;;;;;;34.35;31.85;;;;;;;23.17;100.00;101319.50;5028610;28;20053;-83
2022/06/27 06:35:15;;;;;;;34.58;32.17;;;;;;;23.40;100.00;101331.63;5027072;28;20057;-84
2022/06/27 06:37:43;;;;;;;35.20;32.03;;;;;;;23.43;100.00;101328.38;5021255;28;20133;-83
2022/06/27 06:40:11;;;;;;;34.63;31.95;;;;;;;23.56;100.00;101326.97;5027714;28;20124;-84
2022/06/27 06:42:40;;;;;;;37.08;34.35;;;;;;;23.89;100.00;101335.50;5027898;28;20115;-84
2022/06/27 06:45:13;;;;;;;40.40;37.45;;;;;;;23.88;100.00;101329.28;5025978;28;20046;-85
2022/06/27 06:47:44;;;;;;;39.13;36.38;;;;;;;23.94;100.00;101336.28;5028301;28;20053;-83
2022/06/27 06:50:16;;;;;;;40.07;36.90;;;;;;;24.16;100.00;101332.34;5026388;28;20065;-84
2022/06/27 06:52:44;;;;;;;37.83;35.13;;;;;;;23.51;100.00;101333.22;5033118;28;20053;-84
2022/06/27 06:55:11;;;;;;;37.15;34.45;;;;;;;23.93;100.00;101334.69;5021838;28;20475;-84
2022/06/27 06:57:46;;;;;;;34.75;32.38;;;;;;;24.14;100.00;101331.81;5023934;28;20042;-85
2022/06/27 07:00:15;;;;;;;35.33;32.85;;;;;;;24.16;100.00;101330.44;5017513;28;20050;-82
2022/06/27 07:02:43;;;;;;;34.40;31.83;;;;;;;24.74;100.00;101328.91;5034801;28;20072;-82
2022/06/27 07:05:11;;;;;;;35.08;32.60;;;;;;;24.90;100.00;101327.66;5061013;28;20082;-83
2022/06/27 07:07:42;;;;;;;33.13;30.80;;;;;;;24.78;100.00;101322.63;5065620;28;20095;-84
2022/06/27 07:10:18;;;;;;;36.22;33.33;;;;;;;24.62;100.00;101326.56;5071503;28;20124;-83
2022/06/27 07:12:58;;;;;;;34.22;31.58;;;;;;;24.05;100.00;101325.38;5074549;28;20551;-83
2022/06/27 07:15:26;;;;;;;31.70;29.20;;;;;;;24.53;100.00;101328.28;5077644;28;20132;-83
2022/06/27 07:18:02;;;;;;;33.90;31.25;;;;;;;25.07;100.00;101332.66;5077182;28;20453;-84
2022/06/27 07:20:43;;;;;;;31.90;29.60;;;;;;;25.08;100.00;101324.22;5061845;28;20049;-82
2022/06/27 07:23:12;;;;;;;32.05;29.67;;;;;;;25.23;100.00;101317.00;5075618;28;20076;-82
2022/06/27 07:25:48;;;;;;;32.25;30.05;;;;;;;25.10;100.00;101322.00;5074157;28;20473;-84
2022/06/27 07:28:22;;;;;;;33.47;31.00;;;;;;;24.98;100.00;101323.50;5066495;28;20049;-85
2022/06/27 07:31:00;;;;;;;32.25;29.90;;;;;;;24.75;100.00;101315.06;5063988;28;20405;-85
2022/06/27 07:33:27;;;;;;;32.28;29.80;;;;;;;24.18;100.00;101325.56;5071649;28;20052;-84
2022/06/27 07:36:00;;;;;;;32.25;29.83;;;;;;;24.94;100.00;101323.28;5071417;28;20131;-83
2022/06/27 07:38:32;;;;;;;35.22;32.50;;;;;;;25.59;100.00;101325.53;5068009;28;20045;-84
2022/06/27 07:41:02;;;;;;;34.58;32.05;;;;;;;25.61;100.00;101327.97;5074744;28;20378;-82
2022/06/27 07:43:35;;;;;;;35.33;32.78;;;;;;;25.52;100.00;101322.38;5062885;28;20484;-84
2022/06/27 07:46:06;;;;;;;32.30;30.10;;;;;;;25.51;100.00;101326.19;5056763;28;20491;-85
2022/06/27 07:48:36;;;;;;;33.33;30.73;;;;;;;25.79;100.00;101322.53;5061383;28;20052;-84
2022/06/27 07:51:06;;;;;;;30.83;28.55;;;;;;;26.19;100.00;101317.63;5070733;28;20091;-84
2022/06/27 07:53:35;;;;;;;30.50;28.25;;;;;;;25.70;100.00;101315.34;5072530;28;20060;-84
2022/06/27 07:56:07;;;;;;;31.77;29.35;;;;;;;26.45;100.00;101309.84;5059072;28;20123;-83
2022/06/27 07:58:40;;;;;;;33.60;31.17;;;;;;;26.38;100.00;101316.78;5067097;28;20110;-84
2022/06/27 08:01:15;;;;;;;31.85;29.55;;;;;;;26.59;100.00;101307.16;5063960;28;20504;-83
2022/06/27 08:03:44;;;;;;;31.55;29.05;;;;;;;26.43;100.00;101314.78;5058322;28;20068;-84
2022/06/27 08:06:17;;;;;;;30.60;28.48;;;;;;;26.72;100.00;101316.50;5062662;28;20466;-84
2022/06/27 08:08:55;;;;;;;30.10;28.20;;;;;;;26.98;100.00;101313.28;5069242;28;20401;-85
2022/06/27 08:11:25;;;;;;;29.95;27.48;;;;;;;27.07;100.00;101306.03;5059437;28;20049;-83
2022/06/27 08:14:16;;;;;;;29.13;27.33;;;;;;;27.35;100.00;101309.56;5064128;28;20044;-84
2022/06/27 08:16:52;;;;;;;29.40;27.23;;;;;;;27.12;100.00;101309.47;5073938;28;20558;-85
2022/06/27 08:19:23;;;;;;;29.42;27.48;;;;;;;27.54;100.00;101304.00;5070026;28;20150;-84
2022/06/27 08:21:53;;;;;;;30.25;28.02;;;;;;;27.02;100.00;101306.09;5064394;28;20063;-82
2022/06/27 08:24:22;;;;;;;29.02;26.90;;;;;;;26.81;100.00;101305.69;5071121;28;20112;-85
2022/06/27 08:26:52;;;;;;;31.15;28.45;;;;;;;27.29;100.00;101295.22;5061302;28;20097;-85
2022/06/27 08:29:35;;;;;;;31.58;29.48;;;;;;;27.41;100.00;101297.44;5076984;28;20202;-85
2022/06/27 08:32:09;;;;;;;31.10;28.58;;;;;;;27.23;100.00;101287.47;5065268;28;20052;-84
2022/06/27 08:34:38;;;;;;;30.23;27.80;;;;;;;27.71;100.00;101295.94;5062903;28;20103;-85
2022/06/27 08:37:11;;;;;;;31.27;29.48;;;;;;;27.93;100.00;101297.13;5070717;28;20048;-85
2022/06/27 08:39:49;;;;;;;34.55;32.22;;;;;;;26.70;100.00;101288.75;5074332;28;20396;-84
2022/06/27 08:42:22;;;;;;;28.75;27.00;;;;;;;26.99;100.00;101285.75;5070100;28;20055;-83
2022/06/27 08:44:53;;;;;;;29.38;27.58;;;;;;;27.73;100.00;101292.94;5065513;28;20062;-84
2022/06/27 08:47:24;;;;;;;31.13;28.92;;;;;;;27.36;100.00;101292.91;5061994;28;20053;-84
2022/06/27 08:49:54;;;;;;;30.25;28.35;;;;;;;27.38;100.00;101290.69;5070043;28;20148;-83
2022/06/27 08:52:28;;;;;;;31.73;29.45;;;;;;;27.54;100.00;101299.34;5076497;28;20040;-85
2022/06/27 08:55:02;;;;;;;32.95;30.55;;;;;;;28.46;100.00;101299.13;5076128;28;20047;-84
2022/06/27 08:57:33;;;;;;;28.05;25.85;;;;;;;27.43;100.00;101288.97;5065045;28;20052;-84
2022/06/27 09:00:11;;;;;;;27.92;25.88;;;;;;;27.64;100.00;101290.94;5066090;28;20140;-83
2022/06/27 09:02:43;;;;;;;27.80;25.83;;;;;;;26.82;100.00;101282.81;5070396;28;20052;-83
2022/06/27 09:05:22;;;;;;;29.08;27.08;;;;;;;26.71;100.00;101282.97;5073264;28;20475;-84
2022/06/27 09:07:54;;;;;;;28.90;26.67;;;;;;;27.34;100.00;101284.22;5075720;28;20404;-83
2022/06/27 09:10:32;;;;;;;28.65;26.60;;;;;;;27.73;100.00;101287.47;5061336;28;20049;-84
2022/06/27 09:13:12;;;;;;;27.15;25.42;;;;;;;27.27;100.00;101280.31;5061157;28;20550;-83
2022/06/27 09:15:54;;;;;;;28.77;26.45;;;;;;;27.52;100.00;101282.47;5069914;28;20106;-82
2022/06/27 09:18:42;;;;;;;28.95;26.85;;;;;;;27.22;100.00;101274.94;5070885;28;20392;-83
2022/06/27 09:21:11;;;;;;;27.80;25.88;;;;;;;27.82;100.00;101274.75;5062549;28;20472;-82
2022/06/27 09:23:47;;;;;;;29.05;26.67;;;;;;;28.28;100.00;101277.16;5071688;28;20051;-82
2022/06/27 09:26:17;;;;;;;28.65;26.63;;;;;;;27.64;100.00;101281.94;5068010;28;20075;-81
2022/06/27 09:28:53;;;;;;;30.13;28.00;;;;;;;28.31;100.00;101278.44;5071421;28;20070;-83
2022/06/27 09:31:37;;;;;;;29.45;27.40;;;;;;;27.21;100.00;101273.34;5073568;28;20408;-82
2022/06/27 09:34:08;;;;;;;30.92;28.80;;;;;;;26.97;100.00;101273.53;5066044;28;20048;-82
2022/06/27 09:36:38;;;;;;;30.80;28.95;;;;;;;28.29;100.00;101275.22;5073896;28;20052;-83
2022/06/27 09:39:10;;;;;;;29.58;27.45;;;;;;;28.86;97.71;101260.91;5066350;28;20036;-83
2022/06/27 09:41:41;;;;;;;31.58;29.55;;;;;;;29.19;94.29;101256.66;5068546;28;20132;-82
2022/06/27 09:44:14;;;;;;;31.88;29.25;;;;;;;29.50;98.67;101263.16;5069975;28;20487;-83
2022/06/27 09:46:54;;;;;;;31.23;29.42;;;;;;;28.79;100.00;101272.28;5068297;28;20036;-83
2022/06/27 09:49:25;;;;;;;30.92;29.08;;;;;;;29.06;95.69;101257.63;5077558;28;20048;-83
2022/06/27 09:51:52;;;;;;;32.97;31.05;;;;;;;29.51;86.70;101248.38;5076708;28;20102;-83
2022/06/27 09:54:23;;;;;;;32.05;30.25;;;;;;;29.04;91.49;101253.59;5073834;28;20048;-83
2022/06/27 09:56:54;;;;;;;33.05;31.00;;;;;;;29.31;98.70;101242.38;5069459;28;20044;-81
2022/06/27 09:59:21;;;;;;;33.15;30.75;;;;;;;29.29;100.00;101241.91;5066856;28;20127;-83
2022/06/27 10:01:51;;;;;;;29.88;27.98;;;;;;;29.24;93.08;101239.31;5071846;28;20055;-82
2022/06/27 10:04:28;;;;;;;31.45;29.25;;;;;;;29.17;94.75;101247.19;5061615;28;20068;-84
2022/06/27 10:06:59;;;;;;;35.92;33.17;;;;;;;29.05;95.03;101245.09;5071301;28;20131;-83
2022/06/27 10:09:45;;;;;;;28.63;26.83;;;;;;;28.37;99.42;101244.44;5070000;28;20052;-83
2022/06/27 10:12:27;;;;;;;31.17;29.17;;;;;;;28.14;99.88;101261.94;5063744;28;20083;-82
2022/06/27 10:15:23;;;;;;;32.00;29.90;;;;;;;28.17;100.00;101258.59;5066786;28;20108;-82
2022/06/27 10:18:02;;;;;;;31.17;28.73;;;;;;;28.70;100.00;101250.41;5065519;28;20052;-82
2022/06/27 10:20:52;;;;;;;35.15;33.00;;;;;;;29.71;96.11;101242.25;5063933;28;20118;-84
2022/06/27 10:23:31;;;;;;;35.10;32.60;;;;;;;28.57;100.00;101242.31;5070217;28;20118;-83
2022/06/27 10:26:07;;;;;;;34.58;32.28;;;;;;;28.20;100.00;101239.69;5065751;28;20143;-83
2022/06/27 10:29:33;;;;;;;36.60;34.00;;;;;;;27.83;100.00;101236.22;5070941;28;20053;-84
2022/06/27 10:32:07;;;;;;;34.22;31.83;;;;;;;27.73;100.00;101232.91;5068042;28;20098;-83
2022/06/27 10:35:11;;;;;;;33.95;31.45;;;;;;;28.42;99.24;101219.75;5063303;28;20041;-83
2022/06/27 10:37:56;;;;;;;;;;;;;;;;;;;;;
2022/06/27 10:43:47;;;;;;;32.33;30.42;;;;;;;28.59;100.00;101219.00;5062115;28;20056;-82
2022/06/27 10:46:43;;;;;;;29.85;28.15;;;;;;;28.04;92.86;101224.78;5070711;28;20044;-83
2022/06/27 10:49:34;;;;;;;29.88;28.00;;;;;;;28.08;100.00;101217.63;5061778;28;20115;-84
2022/06/27 10:52:37;;;;;;;31.50;29.63;;;;;;;27.87;100.00;101220.03;5069461;28;20048;-84
2022/06/27 10:55:29;;;;;;;;;;;;;;;29.02;100.00;101207.44;5068562;28;20048;-83
2022/06/27 10:58:25;;;;;;;28.63;26.93;;;;;;;28.62;100.00;101206.63;5069619;28;19939;-83
2022/06/27 11:01:18;;;;;;;29.40;27.48;;;;;;;27.96;100.00;101207.25;5070540;28;20044;-82
2022/06/27 11:03:49;;;;;;;29.73;27.90;;;;;;;27.29;100.00;101202.50;5061445;28;20779;-82
2022/06/27 11:06:16;;;;;;;29.88;27.80;;;;;;;27.65;100.00;101198.97;5069668;28;20058;-82
2022/06/27 11:08:51;;;;;;;29.58;27.40;;;;;;;28.01;100.00;101200.84;5072941;28;20131;-82
2022/06/27 11:11:35;;;;;;;30.50;28.35;;;;;;;28.79;100.00;101187.56;5068803;28;20457;-85
2022/06/27 11:14:04;;;;;;;28.42;26.45;;;;;;;28.41;100.00;101196.25;5071907;28;20060;-82
2022/06/27 11:16:42;;;;;;;28.83;26.92;;;;;;;28.42;100.00;101181.50;5068129;28;20048;-85
2022/06/27 11:21:58;;;;;;;29.65;27.55;;;;;;;29.64;100.00;101179.81;5078646;28;20052;-83
2022/06/27 11:24:36;;;;;;;29.15;27.35;;;;;;;29.57;86.47;101173.19;5082762;28;20058;-83
2022/06/27 11:27:16;;;;;;;28.65;26.80;;;;;;;28.70;99.10;101173.88;5083577;28;20139;-83
2022/06/27 11:32:48;;;;;;;;;;;;;;;28.73;92.11;101165.03;4968579;28;20042;-83
2022/06/27 11:35:18;;;;;;;32.85;30.23;;;;;;;29.17;95.59;101163.22;4967194;28;19928;-83
2022/06/27 11:38:25;;;;;;;;;;;;;;;;;;;;;
2022/06/27 11:44:21;;;;;;;29.33;27.25;;;;;;;28.67;100.00;101162.78;4910920;28;20071;-82
2022/06/27 11:46:51;;;;;;;26.85;24.70;;;;;;;28.97;92.46;101156.41;4966714;28;20141;-82